sensor_id;sensor_type;location;lat;lon;timestamp;P1;durP1;ratioP1;P2;durP2;ratioP2
40649;SDS011;26342;42.826;23.992;2023-02-18T00:02:06;13.13;;;6.13;;
40649;SDS011;26342;42.826;23.992;2023-02-18T00:04:32;20.77;;;8.57;;
40649;SDS011;26342;42.826;23.992;2023-02-18T00:06:57;10.80;;;5.63;;
40649;SDS011;26342;42.826;23.992;2023-02-18T00:09:23;10.98;;;6.80;;
40649;SDS011;26342;42.826;23.992;2023-02-18T00:11:49;12.30;;;5.97;;
40649;SDS011;26342;42.826;23.992;2023-02-18T00:14:14;8.35;;;7.13;;
40649;SDS011;26342;42.826;23.992;2023-02-18T00:16:41;13.88;;;5.55;;
40649;SDS011;26342;42.826;23.992;2023-02-18T00:19:09;12.43;;;6.53;;
40649;SDS011;26342;42.826;23.992;2023-02-18T00:21:36;16.25;;;6.97;;
40649;SDS011;26342;42.826;23.992;2023-02-18T00:24:02;13.52;;;6.82;;
40649;SDS011;26342;42.826;23.992;2023-02-18T00:26:28;7.32;;;5.93;;
40649;SDS011;26342;42.826;23.992;2023-02-18T00:28:54;14.57;;;6.25;;
40649;SDS011;26342;42.826;23.992;2023-02-18T00:31:21;9.70;;;4.40;;
40649;SDS011;26342;42.826;23.992;2023-02-18T00:33:48;14.15;;;5.70;;
40649;SDS011;26342;42.826;23.992;2023-02-18T00:36:15;16.40;;;6.57;;
40649;SDS011;26342;42.826;23.992;2023-02-18T00:38:43;12.10;;;7.80;;
40649;SDS011;26342;42.826;23.992;2023-02-18T00:41:10;16.08;;;6.72;;
40649;SDS011;26342;42.826;23.992;2023-02-18T00:43:35;16.45;;;8.13;;
40649;SDS011;26342;42.826;23.992;2023-02-18T00:46:01;14.73;;;7.85;;
40649;SDS011;26342;42.826;23.992;2023-02-18T00:48:26;15.65;;;7.18;;
40649;SDS011;26342;42.826;23.992;2023-02-18T00:50:52;17.42;;;5.95;;
40649;SDS011;26342;42.826;23.992;2023-02-18T00:53:17;11.68;;;6.15;;
40649;SDS011;26342;42.826;23.992;2023-02-18T00:55:43;15.43;;;7.28;;
40649;SDS011;26342;42.826;23.992;2023-02-18T00:58:11;16.90;;;7.68;;
40649;SDS011;26342;42.826;23.992;2023-02-18T01:00:38;16.00;;;7.07;;
40649;SDS011;26342;42.826;23.992;2023-02-18T01:03:03;9.98;;;6.95;;
40649;SDS011;26342;42.826;23.992;2023-02-18T01:05:31;10.52;;;6.18;;
40649;SDS011;26342;42.826;23.992;2023-02-18T01:07:57;15.25;;;5.95;;
40649;SDS011;26342;42.826;23.992;2023-02-18T01:10:22;12.25;;;5.43;;
40649;SDS011;26342;42.826;23.992;2023-02-18T01:12:48;10.25;;;6.18;;
40649;SDS011;26342;42.826;23.992;2023-02-18T01:15:14;17.85;;;5.88;;
40649;SDS011;26342;42.826;23.992;2023-02-18T01:17:41;11.60;;;7.05;;
40649;SDS011;26342;42.826;23.992;2023-02-18T01:20:07;9.80;;;5.70;;
40649;SDS011;26342;42.826;23.992;2023-02-18T01:22:33;10.50;;;5.80;;
40649;SDS011;26342;42.826;23.992;2023-02-18T01:24:58;13.07;;;4.75;;
40649;SDS011;26342;42.826;23.992;2023-02-18T01:27:24;13.80;;;7.97;;
40649;SDS011;26342;42.826;23.992;2023-02-18T01:29:49;5.22;;;4.65;;
40649;SDS011;26342;42.826;23.992;2023-02-18T01:32:15;5.55;;;4.28;;
40649;SDS011;26342;42.826;23.992;2023-02-18T01:34:40;5.80;;;3.95;;
40649;SDS011;26342;42.826;23.992;2023-02-18T01:37:05;8.23;;;3.50;;
40649;SDS011;26342;42.826;23.992;2023-02-18T01:39:31;9.15;;;4.65;;
40649;SDS011;26342;42.826;23.992;2023-02-18T01:41:57;6.55;;;5.80;;
40649;SDS011;26342;42.826;23.992;2023-02-18T01:44:24;8.45;;;6.30;;
40649;SDS011;26342;42.826;23.992;2023-02-18T01:46:52;8.15;;;4.55;;
40649;SDS011;26342;42.826;23.992;2023-02-18T01:49:22;8.63;;;5.18;;
40649;SDS011;26342;42.826;23.992;2023-02-18T01:54:44;7.85;;;5.32;;
40649;SDS011;26342;42.826;23.992;2023-02-18T01:57:17;9.30;;;6.78;;
40649;SDS011;26342;42.826;23.992;2023-02-18T01:59:48;17.77;;;6.55;;
40649;SDS011;26342;42.826;23.992;2023-02-18T02:02:17;16.45;;;8.43;;
40649;SDS011;26342;42.826;23.992;2023-02-18T02:04:45;23.27;;;7.35;;
40649;SDS011;26342;42.826;23.992;2023-02-18T02:07:11;8.45;;;7.32;;
40649;SDS011;26342;42.826;23.992;2023-02-18T02:09:37;13.82;;;8.05;;
40649;SDS011;26342;42.826;23.992;2023-02-18T02:18:10;10.68;;;8.73;;
40649;SDS011;26342;42.826;23.992;2023-02-18T02:20:39;9.85;;;7.53;;
40649;SDS011;26342;42.826;23.992;2023-02-18T02:23:16;19.25;;;9.55;;
40649;SDS011;26342;42.826;23.992;2023-02-18T02:36:43;14.63;;;9.18;;
40649;SDS011;26342;42.826;23.992;2023-02-18T02:39:28;13.90;;;5.97;;
40649;SDS011;26342;42.826;23.992;2023-02-18T02:50:25;11.38;;;6.05;;
40649;SDS011;26342;42.826;23.992;2023-02-18T02:52:58;13.60;;;6.80;;
40649;SDS011;26342;42.826;23.992;2023-02-18T02:55:26;6.65;;;5.95;;
40649;SDS011;26342;42.826;23.992;2023-02-18T02:57:52;8.95;;;7.43;;
40649;SDS011;26342;42.826;23.992;2023-02-18T03:00:23;10.73;;;7.30;;
40649;SDS011;26342;42.826;23.992;2023-02-18T03:11:03;13.27;;;9.45;;
40649;SDS011;26342;42.826;23.992;2023-02-18T03:21:48;30.52;;;7.38;;
40649;SDS011;26342;42.826;23.992;2023-02-18T03:24:22;9.93;;;6.43;;
40649;SDS011;26342;42.826;23.992;2023-02-18T03:26:55;7.55;;;4.63;;
40649;SDS011;26342;42.826;23.992;2023-02-18T03:29:25;19.85;;;8.75;;
40649;SDS011;26342;42.826;23.992;2023-02-18T03:31:53;13.98;;;6.78;;
40649;SDS011;26342;42.826;23.992;2023-02-18T03:34:25;13.35;;;7.05;;
40649;SDS011;26342;42.826;23.992;2023-02-18T03:36:58;8.85;;;6.20;;
40649;SDS011;26342;42.826;23.992;2023-02-18T03:39:26;22.10;;;8.75;;
40649;SDS011;26342;42.826;23.992;2023-02-18T03:41:53;9.75;;;6.18;;
40649;SDS011;26342;42.826;23.992;2023-02-18T03:44:19;12.32;;;7.45;;
40649;SDS011;26342;42.826;23.992;2023-02-18T03:46:45;13.30;;;5.25;;
40649;SDS011;26342;42.826;23.992;2023-02-18T03:49:11;11.45;;;6.28;;
40649;SDS011;26342;42.826;23.992;2023-02-18T03:51:37;10.20;;;4.32;;
40649;SDS011;26342;42.826;23.992;2023-02-18T03:54:03;10.35;;;6.13;;
40649;SDS011;26342;42.826;23.992;2023-02-18T03:56:29;8.40;;;6.78;;
40649;SDS011;26342;42.826;23.992;2023-02-18T03:58:54;16.35;;;8.45;;
40649;SDS011;26342;42.826;23.992;2023-02-18T04:01:20;10.90;;;5.88;;
40649;SDS011;26342;42.826;23.992;2023-02-18T04:03:45;11.48;;;6.28;;
40649;SDS011;26342;42.826;23.992;2023-02-18T04:06:11;12.30;;;6.38;;
40649;SDS011;26342;42.826;23.992;2023-02-18T04:08:36;18.95;;;7.72;;
40649;SDS011;26342;42.826;23.992;2023-02-18T04:11:01;13.10;;;6.45;;
40649;SDS011;26342;42.826;23.992;2023-02-18T04:13:29;11.70;;;6.57;;
40649;SDS011;26342;42.826;23.992;2023-02-18T04:15:55;13.38;;;8.35;;
40649;SDS011;26342;42.826;23.992;2023-02-18T04:18:20;7.55;;;6.82;;
40649;SDS011;26342;42.826;23.992;2023-02-18T04:20:46;18.52;;;7.47;;
40649;SDS011;26342;42.826;23.992;2023-02-18T04:23:11;16.55;;;6.07;;
40649;SDS011;26342;42.826;23.992;2023-02-18T04:25:37;12.48;;;5.57;;
40649;SDS011;26342;42.826;23.992;2023-02-18T04:28:03;6.70;;;5.90;;
40649;SDS011;26342;42.826;23.992;2023-02-18T04:30:28;8.75;;;6.03;;
40649;SDS011;26342;42.826;23.992;2023-02-18T04:32:54;6.90;;;6.20;;
40649;SDS011;26342;42.826;23.992;2023-02-18T04:35:19;10.13;;;7.22;;
40649;SDS011;26342;42.826;23.992;2023-02-18T04:37:45;8.18;;;6.38;;
40649;SDS011;26342;42.826;23.992;2023-02-18T04:40:10;5.88;;;5.30;;
40649;SDS011;26342;42.826;23.992;2023-02-18T04:42:36;4.60;;;3.97;;
40649;SDS011;26342;42.826;23.992;2023-02-18T04:45:02;14.05;;;7.35;;
40649;SDS011;26342;42.826;23.992;2023-02-18T04:47:28;13.48;;;8.23;;
40649;SDS011;26342;42.826;23.992;2023-02-18T04:49:53;40.67;;;7.20;;
40649;SDS011;26342;42.826;23.992;2023-02-18T04:52:19;9.32;;;7.03;;
40649;SDS011;26342;42.826;23.992;2023-02-18T04:54:44;21.95;;;7.97;;
40649;SDS011;26342;42.826;23.992;2023-02-18T04:57:10;15.18;;;10.15;;
40649;SDS011;26342;42.826;23.992;2023-02-18T04:59:35;18.00;;;10.70;;
40649;SDS011;26342;42.826;23.992;2023-02-18T05:02:01;10.40;;;7.72;;
40649;SDS011;26342;42.826;23.992;2023-02-18T05:04:26;10.35;;;6.80;;
40649;SDS011;26342;42.826;23.992;2023-02-18T05:06:52;11.68;;;9.60;;
40649;SDS011;26342;42.826;23.992;2023-02-18T05:09:17;16.63;;;10.52;;
40649;SDS011;26342;42.826;23.992;2023-02-18T05:11:43;18.27;;;9.75;;
40649;SDS011;26342;42.826;23.992;2023-02-18T05:14:08;18.65;;;11.18;;
40649;SDS011;26342;42.826;23.992;2023-02-18T05:16:34;13.20;;;10.52;;
40649;SDS011;26342;42.826;23.992;2023-02-18T05:19:00;25.10;;;12.43;;
40649;SDS011;26342;42.826;23.992;2023-02-18T05:21:25;21.85;;;13.45;;
40649;SDS011;26342;42.826;23.992;2023-02-18T05:23:50;10.25;;;6.47;;
40649;SDS011;26342;42.826;23.992;2023-02-18T05:26:16;14.18;;;5.22;;
40649;SDS011;26342;42.826;23.992;2023-02-18T05:28:42;12.35;;;5.53;;
40649;SDS011;26342;42.826;23.992;2023-02-18T05:31:07;8.77;;;5.57;;
40649;SDS011;26342;42.826;23.992;2023-02-18T05:33:32;13.35;;;8.43;;
40649;SDS011;26342;42.826;23.992;2023-02-18T05:35:58;7.70;;;5.20;;
40649;SDS011;26342;42.826;23.992;2023-02-18T05:38:23;7.88;;;5.97;;
40649;SDS011;26342;42.826;23.992;2023-02-18T05:40:49;20.98;;;6.22;;
40649;SDS011;26342;42.826;23.992;2023-02-18T05:43:14;8.32;;;6.75;;
40649;SDS011;26342;42.826;23.992;2023-02-18T05:45:39;12.82;;;8.35;;
40649;SDS011;26342;42.826;23.992;2023-02-18T05:48:05;15.18;;;9.98;;
40649;SDS011;26342;42.826;23.992;2023-02-18T05:50:31;17.67;;;11.80;;
40649;SDS011;26342;42.826;23.992;2023-02-18T05:52:56;30.55;;;17.90;;
40649;SDS011;26342;42.826;23.992;2023-02-18T05:55:21;15.77;;;10.57;;
40649;SDS011;26342;42.826;23.992;2023-02-18T05:57:48;27.25;;;12.63;;
40649;SDS011;26342;42.826;23.992;2023-02-18T06:00:14;19.85;;;10.50;;
40649;SDS011;26342;42.826;23.992;2023-02-18T06:02:40;20.85;;;12.73;;
40649;SDS011;26342;42.826;23.992;2023-02-18T06:05:05;10.82;;;7.78;;
40649;SDS011;26342;42.826;23.992;2023-02-18T06:07:31;11.27;;;7.72;;
40649;SDS011;26342;42.826;23.992;2023-02-18T06:09:56;15.23;;;9.05;;
40649;SDS011;26342;42.826;23.992;2023-02-18T06:12:22;21.45;;;12.98;;
40649;SDS011;26342;42.826;23.992;2023-02-18T06:14:47;27.85;;;16.05;;
40649;SDS011;26342;42.826;23.992;2023-02-18T06:17:13;25.70;;;14.57;;
40649;SDS011;26342;42.826;23.992;2023-02-18T06:19:39;18.67;;;9.32;;
40649;SDS011;26342;42.826;23.992;2023-02-18T06:22:04;15.50;;;8.07;;
40649;SDS011;26342;42.826;23.992;2023-02-18T06:24:30;13.07;;;9.07;;
40649;SDS011;26342;42.826;23.992;2023-02-18T06:26:55;8.80;;;5.68;;
40649;SDS011;26342;42.826;23.992;2023-02-18T06:29:21;18.55;;;11.75;;
40649;SDS011;26342;42.826;23.992;2023-02-18T06:31:47;15.70;;;9.95;;
40649;SDS011;26342;42.826;23.992;2023-02-18T06:34:12;11.75;;;8.27;;
40649;SDS011;26342;42.826;23.992;2023-02-18T06:36:38;18.98;;;9.30;;
40649;SDS011;26342;42.826;23.992;2023-02-18T06:39:04;16.67;;;12.63;;
40649;SDS011;26342;42.826;23.992;2023-02-18T06:41:30;28.77;;;13.95;;
40649;SDS011;26342;42.826;23.992;2023-02-18T06:43:55;27.63;;;11.90;;
40649;SDS011;26342;42.826;23.992;2023-02-18T06:46:21;25.85;;;16.48;;
40649;SDS011;26342;42.826;23.992;2023-02-18T06:48:46;15.15;;;7.40;;
40649;SDS011;26342;42.826;23.992;2023-02-18T06:51:12;11.40;;;6.10;;
40649;SDS011;26342;42.826;23.992;2023-02-18T06:53:37;11.30;;;6.47;;
40649;SDS011;26342;42.826;23.992;2023-02-18T06:56:03;17.20;;;7.38;;
40649;SDS011;26342;42.826;23.992;2023-02-18T06:58:28;17.48;;;10.35;;
40649;SDS011;26342;42.826;23.992;2023-02-18T07:00:54;16.38;;;6.50;;
40649;SDS011;26342;42.826;23.992;2023-02-18T07:03:19;9.93;;;8.73;;
40649;SDS011;26342;42.826;23.992;2023-02-18T07:05:44;19.30;;;9.68;;
40649;SDS011;26342;42.826;23.992;2023-02-18T07:08:10;16.42;;;11.75;;
40649;SDS011;26342;42.826;23.992;2023-02-18T07:10:35;14.75;;;10.13;;
40649;SDS011;26342;42.826;23.992;2023-02-18T07:13:01;15.00;;;10.63;;
40649;SDS011;26342;42.826;23.992;2023-02-18T07:15:27;9.38;;;6.07;;
40649;SDS011;26342;42.826;23.992;2023-02-18T07:17:52;25.67;;;10.85;;
40649;SDS011;26342;42.826;23.992;2023-02-18T07:20:19;13.65;;;12.13;;
40649;SDS011;26342;42.826;23.992;2023-02-18T07:22:46;22.75;;;11.52;;
40649;SDS011;26342;42.826;23.992;2023-02-18T07:25:12;28.73;;;17.25;;
40649;SDS011;26342;42.826;23.992;2023-02-18T07:27:38;13.55;;;9.82;;
40649;SDS011;26342;42.826;23.992;2023-02-18T07:30:04;9.30;;;8.15;;
40649;SDS011;26342;42.826;23.992;2023-02-18T07:32:30;18.85;;;11.70;;
40649;SDS011;26342;42.826;23.992;2023-02-18T07:34:56;25.42;;;13.00;;
40649;SDS011;26342;42.826;23.992;2023-02-18T07:37:21;16.27;;;10.65;;
40649;SDS011;26342;42.826;23.992;2023-02-18T07:39:47;11.05;;;9.98;;
40649;SDS011;26342;42.826;23.992;2023-02-18T07:42:12;15.65;;;9.38;;
40649;SDS011;26342;42.826;23.992;2023-02-18T07:44:38;18.80;;;12.20;;
40649;SDS011;26342;42.826;23.992;2023-02-18T07:47:05;14.85;;;10.00;;
40649;SDS011;26342;42.826;23.992;2023-02-18T07:49:33;19.00;;;12.52;;
40649;SDS011;26342;42.826;23.992;2023-02-18T07:51:59;22.33;;;12.30;;
40649;SDS011;26342;42.826;23.992;2023-02-18T07:54:24;26.00;;;13.32;;
40649;SDS011;26342;42.826;23.992;2023-02-18T07:56:50;31.38;;;17.27;;
40649;SDS011;26342;42.826;23.992;2023-02-18T07:59:16;26.40;;;20.58;;
40649;SDS011;26342;42.826;23.992;2023-02-18T08:01:42;30.83;;;18.77;;
40649;SDS011;26342;42.826;23.992;2023-02-18T08:04:07;37.92;;;21.75;;
40649;SDS011;26342;42.826;23.992;2023-02-18T08:06:34;24.63;;;16.08;;
40649;SDS011;26342;42.826;23.992;2023-02-18T08:09:08;29.25;;;18.30;;
40649;SDS011;26342;42.826;23.992;2023-02-18T08:11:34;66.47;;;18.65;;
40649;SDS011;26342;42.826;23.992;2023-02-18T08:14:00;38.05;;;22.08;;
40649;SDS011;26342;42.826;23.992;2023-02-18T08:16:26;39.65;;;22.67;;
40649;SDS011;26342;42.826;23.992;2023-02-18T08:18:51;44.72;;;19.08;;
40649;SDS011;26342;42.826;23.992;2023-02-18T08:21:18;4.30;;;2.95;;
40649;SDS011;26342;42.826;23.992;2023-02-18T08:23:45;7.93;;;4.65;;
40649;SDS011;26342;42.826;23.992;2023-02-18T08:26:11;16.63;;;11.15;;
40649;SDS011;26342;42.826;23.992;2023-02-18T08:28:37;16.90;;;9.65;;
40649;SDS011;26342;42.826;23.992;2023-02-18T08:31:02;14.30;;;7.90;;
40649;SDS011;26342;42.826;23.992;2023-02-18T08:33:28;20.05;;;12.07;;
40649;SDS011;26342;42.826;23.992;2023-02-18T08:35:54;13.00;;;8.68;;
40649;SDS011;26342;42.826;23.992;2023-02-18T08:38:20;16.40;;;6.40;;
40649;SDS011;26342;42.826;23.992;2023-02-18T08:40:47;7.30;;;3.20;;
40649;SDS011;26342;42.826;23.992;2023-02-18T08:43:13;5.47;;;4.07;;
40649;SDS011;26342;42.826;23.992;2023-02-18T08:45:39;6.28;;;5.70;;
40649;SDS011;26342;42.826;23.992;2023-02-18T08:48:06;11.77;;;8.43;;
40649;SDS011;26342;42.826;23.992;2023-02-18T08:50:33;13.20;;;7.57;;
40649;SDS011;26342;42.826;23.992;2023-02-18T08:52:58;17.48;;;10.55;;
40649;SDS011;26342;42.826;23.992;2023-02-18T08:55:25;32.38;;;11.70;;
40649;SDS011;26342;42.826;23.992;2023-02-18T08:57:51;24.67;;;12.77;;
40649;SDS011;26342;42.826;23.992;2023-02-18T09:00:17;16.90;;;11.65;;
40649;SDS011;26342;42.826;23.992;2023-02-18T09:02:43;16.13;;;9.07;;
40649;SDS011;26342;42.826;23.992;2023-02-18T09:05:08;12.60;;;7.30;;
40649;SDS011;26342;42.826;23.992;2023-02-18T09:07:35;22.38;;;8.65;;
40649;SDS011;26342;42.826;23.992;2023-02-18T09:10:01;21.02;;;12.50;;
40649;SDS011;26342;42.826;23.992;2023-02-18T09:12:27;16.33;;;9.23;;
40649;SDS011;26342;42.826;23.992;2023-02-18T09:14:53;31.45;;;11.45;;
40649;SDS011;26342;42.826;23.992;2023-02-18T09:17:18;23.20;;;13.57;;
40649;SDS011;26342;42.826;23.992;2023-02-18T09:19:44;11.70;;;8.30;;
40649;SDS011;26342;42.826;23.992;2023-02-18T09:22:09;17.30;;;10.25;;
40649;SDS011;26342;42.826;23.992;2023-02-18T09:24:38;22.38;;;13.65;;
40649;SDS011;26342;42.826;23.992;2023-02-18T09:27:05;14.20;;;9.68;;
40649;SDS011;26342;42.826;23.992;2023-02-18T09:29:31;11.50;;;6.22;;
40649;SDS011;26342;42.826;23.992;2023-02-18T09:32:00;9.45;;;6.63;;
40649;SDS011;26342;42.826;23.992;2023-02-18T09:34:26;16.40;;;7.57;;
40649;SDS011;26342;42.826;23.992;2023-02-18T09:36:51;5.60;;;4.85;;
40649;SDS011;26342;42.826;23.992;2023-02-18T09:39:17;7.97;;;2.95;;
40649;SDS011;26342;42.826;23.992;2023-02-18T09:41:47;6.60;;;4.28;;
40649;SDS011;26342;42.826;23.992;2023-02-18T09:49:43;10.25;;;5.72;;
40649;SDS011;26342;42.826;23.992;2023-02-18T09:52:17;10.50;;;6.05;;
40649;SDS011;26342;42.826;23.992;2023-02-18T09:54:50;14.65;;;6.28;;
40649;SDS011;26342;42.826;23.992;2023-02-18T09:57:58;6.00;;;5.40;;
40649;SDS011;26342;42.826;23.992;2023-02-18T10:00:38;8.98;;;4.68;;
40649;SDS011;26342;42.826;23.992;2023-02-18T10:03:19;8.68;;;5.82;;
40649;SDS011;26342;42.826;23.992;2023-02-18T10:05:56;15.82;;;3.83;;
40649;SDS011;26342;42.826;23.992;2023-02-18T10:08:24;8.60;;;3.47;;
40649;SDS011;26342;42.826;23.992;2023-02-18T10:10:51;6.13;;;2.90;;
40649;SDS011;26342;42.826;23.992;2023-02-18T10:13:19;3.92;;;1.40;;
40649;SDS011;26342;42.826;23.992;2023-02-18T10:15:46;7.68;;;1.80;;
40649;SDS011;26342;42.826;23.992;2023-02-18T10:18:27;2.45;;;2.25;;
40649;SDS011;26342;42.826;23.992;2023-02-18T10:21:29;4.70;;;2.30;;
40649;SDS011;26342;42.826;23.992;2023-02-18T10:24:40;9.23;;;2.53;;
40649;SDS011;26342;42.826;23.992;2023-02-18T10:26:51;2.63;;;1.23;;
40649;SDS011;26342;42.826;23.992;2023-02-18T10:29:17;1.15;;;1.02;;
40649;SDS011;26342;42.826;23.992;2023-02-18T10:34:38;5.03;;;2.65;;
40649;SDS011;26342;42.826;23.992;2023-02-18T10:48:13;7.72;;;1.88;;
40649;SDS011;26342;42.826;23.992;2023-02-18T10:50:43;3.67;;;2.75;;
40649;SDS011;26342;42.826;23.992;2023-02-18T10:55:47;4.57;;;2.58;;
40649;SDS011;26342;42.826;23.992;2023-02-18T11:01:05;2.23;;;2.00;;
40649;SDS011;26342;42.826;23.992;2023-02-18T11:03:38;1.15;;;1.05;;
40649;SDS011;26342;42.826;23.992;2023-02-18T11:06:04;1.67;;;1.38;;
40649;SDS011;26342;42.826;23.992;2023-02-18T11:08:41;1.17;;;0.95;;
40649;SDS011;26342;42.826;23.992;2023-02-18T11:11:22;3.13;;;1.48;;
40649;SDS011;26342;42.826;23.992;2023-02-18T11:13:51;4.63;;;2.00;;
40649;SDS011;26342;42.826;23.992;2023-02-18T11:16:22;0.65;;;0.65;;
40649;SDS011;26342;42.826;23.992;2023-02-18T11:19:00;1.35;;;1.25;;
40649;SDS011;26342;42.826;23.992;2023-02-18T11:21:35;0.93;;;0.55;;
40649;SDS011;26342;42.826;23.992;2023-02-18T11:24:06;0.40;;;0.40;;
40649;SDS011;26342;42.826;23.992;2023-02-18T11:26:35;1.40;;;1.15;;
40649;SDS011;26342;42.826;23.992;2023-02-18T11:31:44;1.13;;;0.82;;
40649;SDS011;26342;42.826;23.992;2023-02-18T11:34:17;0.82;;;0.55;;
40649;SDS011;26342;42.826;23.992;2023-02-18T11:36:47;1.48;;;1.05;;
40649;SDS011;26342;42.826;23.992;2023-02-18T11:39:24;1.50;;;0.70;;
40649;SDS011;26342;42.826;23.992;2023-02-18T11:44:24;2.17;;;1.35;;
40649;SDS011;26342;42.826;23.992;2023-02-18T11:47:18;11.47;;;0.50;;
40649;SDS011;26342;42.826;23.992;2023-02-18T11:52:40;1.85;;;1.63;;
40649;SDS011;26342;42.826;23.992;2023-02-18T11:55:23;1.83;;;1.42;;
40649;SDS011;26342;42.826;23.992;2023-02-18T11:58:04;2.72;;;1.20;;
40649;SDS011;26342;42.826;23.992;2023-02-18T12:00:44;2.22;;;1.80;;
40649;SDS011;26342;42.826;23.992;2023-02-18T12:06:03;2.28;;;1.80;;
40649;SDS011;26342;42.826;23.992;2023-02-18T12:08:44;1.83;;;0.98;;
40649;SDS011;26342;42.826;23.992;2023-02-18T12:11:14;0.70;;;0.40;;
40649;SDS011;26342;42.826;23.992;2023-02-18T12:13:50;1.08;;;1.08;;
40649;SDS011;26342;42.826;23.992;2023-02-18T12:22:12;5.10;;;2.03;;
40649;SDS011;26342;42.826;23.992;2023-02-18T12:27:34;3.67;;;3.03;;
40649;SDS011;26342;42.826;23.992;2023-02-18T12:36:02;1.63;;;1.30;;
40649;SDS011;26342;42.826;23.992;2023-02-18T12:38:52;4.90;;;1.45;;
40649;SDS011;26342;42.826;23.992;2023-02-18T13:11:45;3.47;;;0.85;;
40649;SDS011;26342;42.826;23.992;2023-02-18T13:14:22;2.22;;;1.70;;
40649;SDS011;26342;42.826;23.992;2023-02-18T13:16:57;0.80;;;0.80;;
40649;SDS011;26342;42.826;23.992;2023-02-18T13:19:28;0.50;;;0.50;;
40649;SDS011;26342;42.826;23.992;2023-02-18T13:22:05;1.63;;;1.08;;
40649;SDS011;26342;42.826;23.992;2023-02-18T13:24:35;1.33;;;0.85;;
40649;SDS011;26342;42.826;23.992;2023-02-18T13:27:28;4.03;;;1.42;;
40649;SDS011;26342;42.826;23.992;2023-02-18T13:33:13;1.08;;;0.95;;
40649;SDS011;26342;42.826;23.992;2023-02-18T13:41:15;2.83;;;1.38;;
40649;SDS011;26342;42.826;23.992;2023-02-18T13:43:41;1.35;;;0.82;;
40649;SDS011;26342;42.826;23.992;2023-02-18T13:46:12;1.67;;;1.40;;
40649;SDS011;26342;42.826;23.992;2023-02-18T13:51:12;0.45;;;0.40;;
40649;SDS011;26342;42.826;23.992;2023-02-18T13:53:41;1.10;;;0.55;;
40649;SDS011;26342;42.826;23.992;2023-02-18T14:08:43;1.35;;;1.00;;
40649;SDS011;26342;42.826;23.992;2023-02-18T14:13:40;0.43;;;0.43;;
40649;SDS011;26342;42.826;23.992;2023-02-18T14:16:13;0.75;;;0.45;;
40649;SDS011;26342;42.826;23.992;2023-02-18T14:28:37;4.53;;;1.85;;
40649;SDS011;26342;42.826;23.992;2023-02-18T14:44:18;3.58;;;1.92;;
40649;SDS011;26342;42.826;23.992;2023-02-18T14:52:26;1.45;;;0.85;;
40649;SDS011;26342;42.826;23.992;2023-02-18T14:54:53;3.10;;;1.25;;
40649;SDS011;26342;42.826;23.992;2023-02-18T14:57:19;1.55;;;1.20;;
40649;SDS011;26342;42.826;23.992;2023-02-18T15:00:03;0.47;;;0.32;;
40649;SDS011;26342;42.826;23.992;2023-02-18T15:02:29;0.70;;;0.57;;
40649;SDS011;26342;42.826;23.992;2023-02-18T15:07:38;0.98;;;0.60;;
40649;SDS011;26342;42.826;23.992;2023-02-18T15:10:03;0.88;;;0.70;;
40649;SDS011;26342;42.826;23.992;2023-02-18T15:12:29;0.75;;;0.57;;
40649;SDS011;26342;42.826;23.992;2023-02-18T15:14:55;1.05;;;0.60;;
40649;SDS011;26342;42.826;23.992;2023-02-18T15:17:26;0.35;;;0.35;;
40649;SDS011;26342;42.826;23.992;2023-02-18T15:19:53;1.58;;;1.40;;
40649;SDS011;26342;42.826;23.992;2023-02-18T15:22:21;0.28;;;0.28;;
40649;SDS011;26342;42.826;23.992;2023-02-18T15:24:50;2.50;;;0.77;;
40649;SDS011;26342;42.826;23.992;2023-02-18T15:27:19;0.75;;;0.38;;
40649;SDS011;26342;42.826;23.992;2023-02-18T15:29:51;1.55;;;1.20;;
40649;SDS011;26342;42.826;23.992;2023-02-18T15:32:24;4.35;;;2.70;;
40649;SDS011;26342;42.826;23.992;2023-02-18T15:34:56;6.80;;;0.93;;
40649;SDS011;26342;42.826;23.992;2023-02-18T15:37:27;0.77;;;0.73;;
40649;SDS011;26342;42.826;23.992;2023-02-18T15:39:53;11.27;;;6.47;;
40649;SDS011;26342;42.826;23.992;2023-02-18T15:42:25;3.88;;;3.30;;
40649;SDS011;26342;42.826;23.992;2023-02-18T15:47:49;0.73;;;0.73;;
40649;SDS011;26342;42.826;23.992;2023-02-18T15:50:22;1.15;;;1.10;;
40649;SDS011;26342;42.826;23.992;2023-02-18T15:52:50;4.85;;;2.70;;
40649;SDS011;26342;42.826;23.992;2023-02-18T15:55:31;14.77;;;6.38;;
40649;SDS011;26342;42.826;23.992;2023-02-18T15:58:42;4.07;;;1.35;;
40649;SDS011;26342;42.826;23.992;2023-02-18T16:00:59;1.38;;;1.15;;
40649;SDS011;26342;42.826;23.992;2023-02-18T16:08:45;5.85;;;0.75;;
40649;SDS011;26342;42.826;23.992;2023-02-18T16:11:21;4.28;;;1.77;;
40649;SDS011;26342;42.826;23.992;2023-02-18T16:13:49;4.03;;;2.00;;
40649;SDS011;26342;42.826;23.992;2023-02-18T16:16:19;2.95;;;1.80;;
40649;SDS011;26342;42.826;23.992;2023-02-18T16:18:49;0.98;;;0.75;;
40649;SDS011;26342;42.826;23.992;2023-02-18T16:24:20;0.45;;;0.45;;
40649;SDS011;26342;42.826;23.992;2023-02-18T16:26:49;1.40;;;1.10;;
40649;SDS011;26342;42.826;23.992;2023-02-18T16:29:25;0.20;;;0.17;;
40649;SDS011;26342;42.826;23.992;2023-02-18T16:32:06;0.10;;;0.03;;
40649;SDS011;26342;42.826;23.992;2023-02-18T16:34:31;0.30;;;0.30;;
40649;SDS011;26342;42.826;23.992;2023-02-18T16:36:57;0.85;;;0.75;;
40649;SDS011;26342;42.826;23.992;2023-02-18T16:39:41;1.10;;;1.08;;
40649;SDS011;26342;42.826;23.992;2023-02-18T16:42:10;1.67;;;1.00;;
40649;SDS011;26342;42.826;23.992;2023-02-18T16:44:36;1.67;;;1.08;;
40649;SDS011;26342;42.826;23.992;2023-02-18T16:47:02;2.45;;;1.42;;
40649;SDS011;26342;42.826;23.992;2023-02-18T16:49:28;0.75;;;0.75;;
40649;SDS011;26342;42.826;23.992;2023-02-18T16:51:54;0.82;;;0.82;;
40649;SDS011;26342;42.826;23.992;2023-02-18T16:54:19;1.45;;;1.15;;
40649;SDS011;26342;42.826;23.992;2023-02-18T16:56:44;3.83;;;1.75;;
40649;SDS011;26342;42.826;23.992;2023-02-18T16:59:10;2.33;;;1.75;;
40649;SDS011;26342;42.826;23.992;2023-02-18T17:01:36;5.78;;;5.20;;
40649;SDS011;26342;42.826;23.992;2023-02-18T17:04:06;6.78;;;3.60;;
40649;SDS011;26342;42.826;23.992;2023-02-18T17:06:34;3.42;;;2.10;;
40649;SDS011;26342;42.826;23.992;2023-02-18T17:09:00;5.22;;;4.72;;
40649;SDS011;26342;42.826;23.992;2023-02-18T17:11:32;10.70;;;3.97;;
40649;SDS011;26342;42.826;23.992;2023-02-18T17:16:28;6.90;;;3.63;;
40649;SDS011;26342;42.826;23.992;2023-02-18T17:18:54;5.47;;;4.30;;
40649;SDS011;26342;42.826;23.992;2023-02-18T17:21:21;10.13;;;3.25;;
40649;SDS011;26342;42.826;23.992;2023-02-18T17:23:48;4.93;;;3.22;;
40649;SDS011;26342;42.826;23.992;2023-02-18T17:26:17;9.90;;;5.38;;
40649;SDS011;26342;42.826;23.992;2023-02-18T17:28:48;8.65;;;5.45;;
40649;SDS011;26342;42.826;23.992;2023-02-18T17:31:34;5.97;;;3.28;;
40649;SDS011;26342;42.826;23.992;2023-02-18T17:34:05;3.08;;;2.10;;
40649;SDS011;26342;42.826;23.992;2023-02-18T17:36:32;3.55;;;2.42;;
40649;SDS011;26342;42.826;23.992;2023-02-18T17:38:58;8.95;;;3.72;;
40649;SDS011;26342;42.826;23.992;2023-02-18T17:41:24;10.30;;;4.38;;
40649;SDS011;26342;42.826;23.992;2023-02-18T17:43:49;5.30;;;3.00;;
40649;SDS011;26342;42.826;23.992;2023-02-18T17:46:17;5.90;;;2.40;;
40649;SDS011;26342;42.826;23.992;2023-02-18T17:48:43;4.88;;;1.60;;
40649;SDS011;26342;42.826;23.992;2023-02-18T17:51:23;8.98;;;3.47;;